Time;durP1;ratioP1;P1;durP2;ratioP2;P2;SDS_P1;SDS_P2;PMS_P1;PMS_P2;Temp;Humidity;BMP_temperature;BMP_pressure;BME280_temperature;BME280_humidity;BME280_pressure;Samples;Min_cycle;Max_cycle;Signal;HPM_P1;HPM_P2
2023/02/18 00:01:30;;;;;;;31.08;22.58;;;9.10;96.70;;;;;;5055848;28;20106;-69
2023/02/18 00:03:58;;;;;;;31.85;23.33;;;9.10;96.70;;;;;;5057584;28;20067;-70
2023/02/18 00:06:28;;;;;;;29.35;23.55;;;9.10;96.70;;;;;;5040377;28;20040;-70
2023/02/18 00:08:57;;;;;;;29.48;21.98;;;9.10;96.70;;;;;;5057087;28;20085;-70
2023/02/18 00:11:25;;;;;;;26.65;21.88;;;9.10;96.70;;;;;;5047588;28;20048;-70
2023/02/18 00:13:56;;;;;;;25.25;19.88;;;9.10;96.70;;;;;;5023966;28;20048;-70
2023/02/18 00:16:25;;;;;;;24.48;19.33;;;9.00;96.70;;;;;;5051192;28;20086;-70
2023/02/18 00:18:56;;;;;;;22.67;16.75;;;9.00;96.70;;;;;;5038588;28;20069;-70
2023/02/18 00:21:25;;;;;;;20.73;17.17;;;9.00;96.70;;;;;;5036495;28;20448;-70
2023/02/18 00:23:53;;;;;;;22.77;16.60;;;9.00;96.70;;;;;;5025854;28;20549;-69
2023/02/18 00:26:20;;;;;;;22.08;16.10;;;9.00;96.70;;;;;;5051776;28;20052;-70
2023/02/18 00:28:50;;;;;;;16.70;13.68;;;9.00;96.70;;;;;;5012555;28;20041;-70
2023/02/18 00:31:21;;;;;;;17.63;13.73;;;9.00;96.70;;;;;;5031218;28;20063;-69
2023/02/18 00:33:50;;;;;;;18.08;14.27;;;9.00;96.70;;;;;;5048455;28;20070;-70
2023/02/18 00:36:21;;;;;;;19.15;14.52;;;9.00;96.70;;;;;;5042190;28;20056;-69
2023/02/18 00:38:51;;;;;;;16.58;13.57;;;9.00;96.70;;;;;;5025808;28;20055;-70
2023/02/18 00:41:19;;;;;;;18.60;14.30;;;9.00;96.70;;;;;;5048945;28;20475;-70
2023/02/18 00:43:47;;;;;;;17.85;14.68;;;9.00;96.70;;;;;;5037648;28;20036;-70
2023/02/18 00:46:15;;;;;;;16.08;13.70;;;9.10;96.70;;;;;;5008359;28;20045;-70
2023/02/18 00:48:44;;;;;;;16.77;13.57;;;9.10;96.70;;;;;;5050777;28;20046;-70
2023/02/18 00:51:11;;;;;;;17.70;13.63;;;9.10;96.70;;;;;;5024411;28;20049;-72
2023/02/18 00:53:41;;;;;;;17.00;13.75;;;9.00;96.70;;;;;;5026415;28;20064;-72
2023/02/18 00:56:09;;;;;;;18.05;13.75;;;8.90;96.70;;;;;;5024555;28;20048;-70
2023/02/18 00:58:37;;;;;;;17.33;13.55;;;9.00;96.70;;;;;;5025204;28;20493;-69
2023/02/18 01:01:07;;;;;;;17.13;12.70;;;9.10;96.70;;;;;;5038645;28;20434;-70
2023/02/18 01:03:35;;;;;;;18.50;13.82;;;9.10;96.70;;;;;;5037119;28;20064;-70
2023/02/18 01:06:04;;;;;;;16.77;13.68;;;9.00;96.70;;;;;;5020909;28;20140;-70
2023/02/18 01:08:34;;;;;;;16.98;13.63;;;9.10;96.70;;;;;;5029586;28;20037;-72
2023/02/18 01:11:04;;;;;;;17.70;13.85;;;9.00;96.70;;;;;;5031878;28;20463;-72
2023/02/18 01:13:32;;;;;;;17.55;14.20;;;9.10;96.70;;;;;;5029887;28;20057;-72
2023/02/18 01:15:59;;;;;;;18.30;14.38;;;9.10;96.70;;;;;;5027046;28;20573;-72
2023/02/18 01:18:29;;;;;;;16.02;13.57;;;9.10;96.70;;;;;;5045268;28;20682;-72
2023/02/18 01:20:58;;;;;;;16.20;13.77;;;9.10;96.70;;;;;;5034188;28;20588;-71
2023/02/18 01:23:26;;;;;;;16.02;12.77;;;9.10;96.70;;;;;;5046358;28;20044;-70
2023/02/18 01:25:55;;;;;;;17.48;13.70;;;9.10;96.70;;;;;;5044463;28;20504;-70
2023/02/18 01:28:24;;;;;;;16.33;13.32;;;9.10;96.70;;;;;;5014085;28;20041;-71
2023/02/18 01:30:53;;;;;;;18.05;13.38;;;9.10;96.70;;;;;;5029695;28;20134;-71
2023/02/18 01:33:21;;;;;;;17.30;13.32;;;9.10;96.70;;;;;;5034330;28;20486;-71
2023/02/18 01:35:51;;;;;;;18.50;14.32;;;9.00;96.70;;;;;;5042158;28;20044;-70
2023/02/18 01:38:18;;;;;;;15.52;13.13;;;9.00;96.70;;;;;;5039172;28;20087;-71
2023/02/18 01:40:50;;;;;;;16.25;13.52;;;9.00;96.70;;;;;;5029406;28;20570;-70
2023/02/18 01:43:33;;;;;;;15.60;12.65;;;9.00;96.70;;;;;;4972023;28;20054;-73
2023/02/18 01:46:14;;;;;;;16.85;12.73;;;9.00;96.70;;;;;;4980264;28;20042;-71
2023/02/18 01:48:50;;;;;;;15.18;12.57;;;9.00;96.70;;;;;;4977559;28;20046;-72
2023/02/18 01:51:21;;;;;;;14.50;12.40;;;9.00;96.70;;;;;;4989808;28;20058;-71
2023/02/18 01:53:54;;;;;;;13.55;11.43;;;9.00;96.70;;;;;;4982169;28;20081;-71
2023/02/18 01:56:30;;;;;;;14.98;12.10;;;8.90;96.70;;;;;;4962177;28;20050;-72
2023/02/18 01:59:04;;;;;;;16.27;11.82;;;8.90;96.70;;;;;;4981336;28;20124;-72
2023/02/18 02:01:34;;;;;;;15.20;12.18;;;9.00;96.70;;;;;;4985994;28;21583;-72
2023/02/18 02:04:03;;;;;;;13.93;11.82;;;9.00;96.70;;;;;;4979788;28;20153;-72
2023/02/18 02:06:31;;;;;;;16.42;13.27;;;9.00;96.70;;;;;;4984451;28;20050;-72
2023/02/18 02:09:02;;;;;;;15.63;13.45;;;9.00;96.70;;;;;;4981025;28;20397;-72
2023/02/18 02:11:48;;;;;;;15.70;13.55;;;9.00;96.70;;;;;;4969723;28;20069;-71
2023/02/18 02:14:29;;;;;;;18.52;14.30;;;9.00;96.70;;;;;;5011056;28;20052;-72
2023/02/18 02:17:03;;;;;;;17.38;14.02;;;9.00;96.70;;;;;;5040863;28;20133;-72
2023/02/18 02:20:22;;;;;;;19.13;14.80;;;9.00;96.70;;;;;;5061336;28;20132;-74
2023/02/18 02:23:36;;;;;;;18.85;15.05;;;9.00;96.70;;;;;;4982326;28;20071;-74
2023/02/18 02:26:36;;;;;;;18.83;15.25;;;9.00;96.70;;;;;;5001233;28;21125;-73
2023/02/18 02:29:50;;;;;;;17.98;14.52;;;8.90;96.70;;;;;;5036075;28;20045;-73
2023/02/18 02:32:42;;;;;;;17.48;14.68;;;9.00;96.70;;;;;;5021640;28;20060;-74
2023/02/18 02:35:19;;;;;;;18.52;14.88;;;9.00;96.70;;;;;;5041219;28;20052;-73
2023/02/18 02:37:56;;;;;;;16.70;14.10;;;9.00;96.70;;;;;;5027252;28;20058;-74
2023/02/18 02:40:32;;;;;;;16.25;14.35;;;9.00;96.70;;;;;;5036862;28;20466;-74
2023/02/18 02:43:09;;;;;;;16.88;13.57;;;9.00;96.70;;;;;;5024461;28;20506;-74
2023/02/18 02:45:48;;;;;;;16.65;13.63;;;9.10;96.70;;;;;;5027099;28;20048;-74
2023/02/18 02:48:31;;;;;;;16.70;12.85;;;9.10;96.70;;;;;;5042562;28;20178;-74
2023/02/18 02:51:08;;;;;;;15.00;12.80;;;9.00;96.70;;;;;;5045059;28;20657;-73
2023/02/18 02:53:39;;;;;;;16.75;12.77;;;9.10;96.70;;;;;;5010290;28;20449;-74
2023/02/18 02:56:13;;;;;;;14.65;12.73;;;9.10;96.70;;;;;;5059474;28;20045;-73
2023/02/18 02:58:43;;;;;;;13.38;11.98;;;9.10;96.70;;;;;;5030575;28;20151;-74
2023/02/18 03:01:35;;;;;;;15.80;12.77;;;9.00;96.70;;;;;;5051518;28;20055;-74
2023/02/18 03:04:31;;;;;;;14.43;11.93;;;9.00;96.70;;;;;;5037541;28;20072;-73
2023/02/18 03:07:34;;;;;;;17.10;13.02;;;9.00;96.70;;;;;;5033353;28;20051;-73
2023/02/18 03:10:22;;;;;;;16.40;12.52;;;9.00;96.70;;;;;;5026702;28;20071;-74
2023/02/18 03:13:00;;;;;;;17.48;12.23;;;9.00;96.70;;;;;;5030286;28;20460;-71
2023/02/18 03:15:37;;;;;;;17.48;12.00;;;9.00;96.70;;;;;;5034634;28;20059;-71
2023/02/18 03:18:12;;;;;;;14.50;11.95;;;9.10;96.70;;;;;;5011663;28;20064;-70
2023/02/18 03:20:46;;;;;;;14.70;12.00;;;9.10;96.70;;;;;;5026791;28;20061;-73
2023/02/18 03:23:19;;;;;;;15.25;13.00;;;9.10;96.70;;;;;;5040491;28;20076;-73
2023/02/18 03:25:48;;;;;;;13.15;11.32;;;9.10;96.70;;;;;;5057288;28;20039;-73
2023/02/18 03:28:19;;;;;;;15.90;11.27;;;9.10;96.70;;;;;;5048275;28;20041;-73
2023/02/18 03:30:50;;;;;;;14.80;11.73;;;9.10;96.70;;;;;;5036811;28;20075;-73
2023/02/18 03:33:22;;;;;;;14.82;11.48;;;9.10;96.70;;;;;;5044357;28;20049;-73
2023/02/18 03:35:54;;;;;;;12.80;11.25;;;9.00;96.70;;;;;;5039545;28;20644;-74
2023/02/18 03:38:30;;;;;;;14.27;11.73;;;9.00;96.70;;;;;;5058681;28;20063;-73
2023/02/18 03:40:58;;;;;;;14.88;12.38;;;9.00;96.70;;;;;;5040393;28;20067;-71
2023/02/18 03:43:27;;;;;;;15.68;11.90;;;9.00;96.70;;;;;;5010340;28;20442;-71
2023/02/18 03:45:56;;;;;;;14.80;12.63;;;9.00;96.70;;;;;;5033454;28;20517;-71
2023/02/18 03:48:24;;;;;;;14.05;12.23;;;9.00;96.70;;;;;;5025243;28;20057;-72
2023/02/18 03:50:52;;;;;;;14.95;11.85;;;9.00;96.70;;;;;;5027228;28;20059;-71
2023/02/18 03:53:20;;;;;;;14.60;12.02;;;9.00;96.70;;;;;;5058218;28;20037;-74
2023/02/18 03:55:50;;;;;;;14.43;11.93;;;8.90;96.70;;;;;;5060419;28;20045;-73
2023/02/18 03:58:18;;;;;;;14.93;12.13;;;8.90;96.70;;;;;;5041081;28;20060;-73
2023/02/18 04:00:46;;;;;;;13.48;11.27;;;8.90;96.70;;;;;;5057222;28;20040;-74
2023/02/18 04:03:15;;;;;;;14.25;12.10;;;8.90;96.70;;;;;;5055711;28;20510;-73
2023/02/18 04:05:42;;;;;;;13.13;11.82;;;8.90;96.70;;;;;;5038657;28;20037;-73
2023/02/18 04:08:11;;;;;;;13.75;11.73;;;8.90;96.70;;;;;;5055919;28;20044;-74
2023/02/18 04:10:38;;;;;;;14.98;11.23;;;9.00;96.70;;;;;;5057089;28;20068;-73
2023/02/18 04:13:08;;;;;;;12.40;11.13;;;9.00;96.70;;;;;;5056910;28;20406;-74
2023/02/18 04:15:36;;;;;;;13.25;11.48;;;9.00;96.70;;;;;;5041664;28;20036;-74
2023/02/18 04:18:04;;;;;;;13.43;11.60;;;9.00;96.70;;;;;;5059042;28;20040;-73
2023/02/18 04:20:32;;;;;;;15.23;10.98;;;9.00;96.70;;;;;;5037445;28;20051;-74
2023/02/18 04:23:00;;;;;;;15.73;12.50;;;9.00;96.70;;;;;;5040004;28;20050;-73
2023/02/18 04:25:28;;;;;;;97.18;59.80;;;9.00;96.70;;;;;;5039666;28;20048;-74
2023/02/18 04:27:56;;;;;;;38.72;27.15;;;9.00;96.70;;;;;;5036237;28;20040;-74
2023/02/18 04:30:26;;;;;;;29.58;21.50;;;9.00;96.70;;;;;;5058015;28;20136;-75
2023/02/18 04:32:54;;;;;;;23.83;18.42;;;9.00;96.70;;;;;;5050655;28;20623;-73
2023/02/18 04:35:22;;;;;;;24.35;18.83;;;9.00;96.70;;;;;;5042767;28;20410;-73
2023/02/18 04:37:50;;;;;;;22.88;18.38;;;8.90;96.70;;;;;;5043080;28;20066;-73
2023/02/18 04:40:18;;;;;;;23.08;18.58;;;8.90;96.70;;;;;;5026756;28;20497;-73
2023/02/18 04:42:46;;;;;;;22.83;19.10;;;8.80;96.70;;;;;;5038994;28;20411;-73
2023/02/18 04:45:14;;;;;;;25.50;19.73;;;8.80;96.70;;;;;;5027261;28;20056;-74
2023/02/18 04:47:43;;;;;;;24.92;19.02;;;8.80;96.70;;;;;;5026942;28;20090;-73
2023/02/18 04:50:11;;;;;;;23.35;18.55;;;8.80;96.70;;;;;;5045079;28;20045;-71
2023/02/18 04:52:39;;;;;;;25.65;20.25;;;8.80;96.70;;;;;;5062157;28;20578;-71
2023/02/18 04:55:07;;;;;;;25.13;20.85;;;8.90;96.70;;;;;;5044377;28;20040;-73
2023/02/18 04:57:35;;;;;;;24.63;20.08;;;8.90;96.70;;;;;;5050036;28;20102;-71
2023/02/18 05:00:05;;;;;;;22.98;20.40;;;8.90;96.70;;;;;;5060193;28;20044;-70
2023/02/18 05:02:33;;;;;;;26.02;21.98;;;8.90;96.70;;;;;;5051860;28;20052;-71
2023/02/18 05:05:04;;;;;;;25.63;21.33;;;8.80;96.70;;;;;;5049053;28;20033;-72
2023/02/18 05:07:33;;;;;;;25.00;21.42;;;8.80;96.70;;;;;;5026885;28;20049;-71
2023/02/18 05:10:01;;;;;;;26.73;21.80;;;8.90;96.70;;;;;;5030999;28;20043;-71
2023/02/18 05:12:29;;;;;;;25.38;21.63;;;8.90;96.70;;;;;;5026719;28;20095;-72
2023/02/18 05:14:57;;;;;;;26.85;21.30;;;8.90;96.70;;;;;;5029544;28;20110;-71
2023/02/18 05:17:25;;;;;;;28.02;23.15;;;9.00;96.70;;;;;;5033491;28;20044;-71
2023/02/18 05:19:53;;;;;;;29.08;22.02;;;8.90;96.70;;;;;;5023033;28;20090;-71
2023/02/18 05:22:22;;;;;;;27.48;23.08;;;8.90;96.70;;;;;;5026887;28;20094;-71
2023/02/18 05:24:50;;;;;;;28.45;22.80;;;8.90;96.70;;;;;;5029449;28;20072;-71
2023/02/18 05:27:18;;;;;;;29.02;22.60;;;8.90;96.70;;;;;;5060822;28;20450;-71
2023/02/18 05:29:46;;;;;;;29.48;24.23;;;9.00;96.70;;;;;;5034739;28;20040;-71
2023/02/18 05:32:14;;;;;;;28.73;23.30;;;8.90;96.70;;;;;;5058585;28;20851;-70
2023/02/18 05:34:42;;;;;;;26.10;22.20;;;8.80;96.70;;;;;;5056443;28;20044;-71
2023/02/18 05:37:12;;;;;;;26.55;22.35;;;8.90;96.70;;;;;;5044371;28;20102;-73
2023/02/18 05:39:41;;;;;;;25.17;21.60;;;8.90;96.70;;;;;;5026159;28;20561;-73
2023/02/18 05:42:10;;;;;;;29.38;23.27;;;8.90;96.70;;;;;;5016852;28;20679;-73
2023/02/18 05:44:38;;;;;;;25.50;21.38;;;8.90;96.70;;;;;;5025763;28;20135;-73
2023/02/18 05:47:08;;;;;;;25.73;22.10;;;8.90;96.70;;;;;;5024435;28;20045;-73
2023/02/18 05:49:39;;;;;;;26.83;21.92;;;8.80;96.70;;;;;;5042129;28;20135;-72
2023/02/18 05:52:08;;;;;;;25.80;21.13;;;8.60;96.70;;;;;;5029209;28;20119;-73
2023/02/18 05:54:37;;;;;;;27.45;21.63;;;8.60;96.70;;;;;;5051492;28;20123;-73
2023/02/18 05:57:08;;;;;;;24.17;21.60;;;8.70;96.70;;;;;;5059227;28;20143;-72
2023/02/18 05:59:35;;;;;;;26.70;21.42;;;8.70;96.70;;;;;;5026607;28;20132;-70
2023/02/18 06:02:03;;;;;;;26.58;21.70;;;8.70;96.70;;;;;;5033259;28;20080;-70
2023/02/18 06:04:31;;;;;;;25.17;20.45;;;8.80;96.70;;;;;;5042940;28;20115;-70
2023/02/18 06:06:59;;;;;;;26.63;23.02;;;8.80;96.70;;;;;;5032228;28;20095;-71
2023/02/18 06:09:27;;;;;;;27.10;22.23;;;8.80;96.70;;;;;;5063861;28;20076;-69
2023/02/18 06:11:55;;;;;;;28.02;22.50;;;8.80;96.70;;;;;;5049371;28;20044;-71
2023/02/18 06:14:24;;;;;;;26.05;21.60;;;8.80;96.70;;;;;;5053240;28;20045;-71
2023/02/18 06:16:52;;;;;;;25.13;21.10;;;8.90;96.70;;;;;;5030802;28;20746;-70
2023/02/18 06:19:20;;;;;;;31.95;22.58;;;8.90;96.70;;;;;;5036775;28;20823;-72
2023/02/18 06:21:48;;;;;;;27.33;22.20;;;8.90;96.70;;;;;;5020477;28;20665;-73
2023/02/18 06:24:16;;;;;;;28.45;22.50;;;8.90;96.70;;;;;;5065202;28;20705;-73
2023/02/18 06:26:44;;;;;;;23.83;20.60;;;8.90;96.70;;;;;;5030122;28;20190;-75
2023/02/18 06:29:12;;;;;;;27.17;20.95;;;9.00;96.70;;;;;;5041053;28;20391;-73
2023/02/18 06:31:41;;;;;;;26.60;21.35;;;9.00;96.70;;;;;;5030953;28;20065;-73
2023/02/18 06:34:09;;;;;;;26.50;22.23;;;9.00;96.70;;;;;;5051169;28;20068;-71
2023/02/18 06:36:37;;;;;;;29.23;21.88;;;9.00;96.70;;;;;;5059491;28;20480;-70
2023/02/18 06:39:08;;;;;;;25.95;21.25;;;9.10;96.70;;;;;;5047136;28;20045;-75
2023/02/18 06:41:36;;;;;;;25.42;22.08;;;9.10;96.70;;;;;;5041087;28;20049;-71
2023/02/18 06:44:05;;;;;;;26.77;22.35;;;9.10;96.70;;;;;;5037025;28;20827;-70
2023/02/18 06:46:33;;;;;;;27.13;22.08;;;9.10;96.70;;;;;;5055541;28;20047;-71
2023/02/18 06:49:03;;;;;;;22.33;19.90;;;9.10;96.70;;;;;;5011531;28;20127;-71
2023/02/18 06:51:31;;;;;;;25.98;20.08;;;9.20;96.70;;;;;;5042791;28;20059;-71
2023/02/18 06:53:58;;;;;;;24.83;20.33;;;9.20;96.70;;;;;;5028504;28;20102;-72
2023/02/18 06:56:26;;;;;;;25.38;21.30;;;9.20;96.70;;;;;;5061614;28;20211;-71
2023/02/18 06:58:57;;;;;;;24.92;21.77;;;9.10;96.70;;;;;;5061199;28;20058;-71
2023/02/18 07:01:25;;;;;;;24.55;21.27;;;9.20;96.70;;;;;;5056737;28;20434;-71
2023/02/18 07:03:53;;;;;;;25.25;21.02;;;9.20;96.70;;;;;;5035775;28;20048;-71
2023/02/18 07:06:22;;;;;;;28.08;21.40;;;9.20;96.70;;;;;;5063318;28;20911;-72
2023/02/18 07:08:50;;;;;;;24.42;21.10;;;9.20;96.70;;;;;;5053900;28;20045;-71
2023/02/18 07:11:18;;;;;;;25.40;20.30;;;9.20;96.70;;;;;;5040985;28;20392;-71
2023/02/18 07:13:46;;;;;;;23.60;18.90;;;9.20;96.70;;;;;;5049879;28;20478;-71
2023/02/18 07:16:14;;;;;;;26.77;21.75;;;9.30;96.70;;;;;;5018052;28;20490;-71
2023/02/18 07:18:42;;;;;;;25.75;20.15;;;9.30;96.70;;;;;;5030812;28;20812;-71
2023/02/18 07:21:09;;;;;;;26.65;21.23;;;9.30;96.70;;;;;;5055375;28;20439;-71
2023/02/18 07:23:39;;;;;;;24.73;19.25;;;9.30;96.70;;;;;;5035498;28;20483;-71
2023/02/18 07:26:08;;;;;;;23.45;19.40;;;9.30;96.70;;;;;;5035072;28;20045;-71
2023/02/18 07:28:37;;;;;;;25.70;19.65;;;9.30;96.70;;;;;;5054597;28;20040;-71
2023/02/18 07:31:06;;;;;;;23.45;19.77;;;9.30;96.70;;;;;;5054846;28;20047;-71
2023/02/18 07:33:34;;;;;;;22.27;19.08;;;9.30;96.70;;;;;;5041724;28;20056;-71
2023/02/18 07:36:03;;;;;;;21.88;19.25;;;9.30;96.70;;;;;;5040593;28;20045;-71
2023/02/18 07:38:31;;;;;;;25.92;21.08;;;9.30;96.70;;;;;;5039262;28;20398;-71
2023/02/18 07:41:00;;;;;;;26.52;22.48;;;9.40;96.70;;;;;;5040791;28;20040;-71
2023/02/18 07:43:28;;;;;;;29.13;22.95;;;9.40;96.70;;;;;;5048149;28;20106;-71
2023/02/18 07:45:56;;;;;;;27.27;21.73;;;9.50;96.70;;;;;;5052382;28;20049;-71
2023/02/18 07:48:24;;;;;;;27.73;21.67;;;9.50;96.70;;;;;;5051951;28;20040;-71
2023/02/18 07:50:51;;;;;;;23.85;20.88;;;9.50;96.70;;;;;;5022925;28;20140;-72
2023/02/18 07:53:19;;;;;;;40.75;33.88;;;9.60;96.70;;;;;;5030089;28;20489;-72
2023/02/18 07:55:50;;;;;;;30.10;23.98;;;9.60;96.70;;;;;;5035532;28;20640;-72
2023/02/18 07:58:33;;;;;;;30.02;23.23;;;9.70;96.70;;;;;;5056606;28;20050;-75
2023/02/18 08:01:04;;;;;;;25.25;20.65;;;9.70;96.70;;;;;;5039103;28;20138;-71
2023/02/18 08:03:33;;;;;;;25.85;21.75;;;9.70;96.70;;;;;;5019770;28;20694;-72
2023/02/18 08:06:02;;;;;;;25.08;20.52;;;9.80;96.70;;;;;;5038178;28;20067;-72
2023/02/18 08:08:31;;;;;;;25.15;21.30;;;9.80;96.70;;;;;;5038169;28;20481;-72
2023/02/18 08:11:05;;;;;;;24.98;20.48;;;9.80;96.70;;;;;;5039142;28;20740;-71
2023/02/18 08:13:47;;;;;;;26.73;20.92;;;9.90;96.70;;;;;;5039825;28;20071;-72
2023/02/18 08:16:15;;;;;;;25.92;21.27;;;9.90;96.70;;;;;;5052547;28;20040;-71
2023/02/18 08:18:43;;;;;;;25.20;21.05;;;10.00;96.70;;;;;;5054113;28;20091;-71
2023/02/18 08:21:11;;;;;;;32.67;21.80;;;10.00;96.70;;;;;;5034223;28;20154;-73
2023/02/18 08:23:39;;;;;;;27.70;21.50;;;10.10;96.70;;;;;;5052204;28;20036;-72
2023/02/18 08:26:09;;;;;;;27.15;21.60;;;10.10;96.70;;;;;;5034797;28;20044;-74
2023/02/18 08:28:41;;;;;;;27.55;21.30;;;10.10;96.70;;;;;;5033994;28;20051;-75
2023/02/18 08:31:17;;;;;;;24.23;18.85;;;10.10;96.70;;;;;;5052305;28;20045;-74
2023/02/18 08:33:46;;;;;;;25.88;19.00;;;10.10;96.70;;;;;;5052459;28;20102;-73
2023/02/18 08:36:13;;;;;;;23.92;20.20;;;10.20;96.70;;;;;;5034641;28;20065;-73
2023/02/18 08:38:41;;;;;;;28.38;20.10;;;10.20;96.70;;;;;;5035211;28;20510;-74
2023/02/18 08:41:10;;;;;;;25.63;19.35;;;10.20;96.70;;;;;;5038455;28;20502;-73
2023/02/18 08:43:38;;;;;;;19.83;16.52;;;10.30;96.70;;;;;;5053983;28;20044;-74
2023/02/18 08:46:06;;;;;;;19.80;16.65;;;10.30;96.70;;;;;;5054589;28;20098;-73
2023/02/18 08:48:45;;;;;;;24.60;18.08;;;10.30;96.70;;;;;;5032764;28;20051;-72
2023/02/18 08:51:15;;;;;;;23.73;18.23;;;10.40;96.70;;;;;;5052537;28;20032;-72
2023/02/18 08:53:44;;;;;;;22.13;18.73;;;10.40;96.70;;;;;;5053415;28;20683;-72
2023/02/18 08:56:14;;;;;;;22.70;19.60;;;10.40;96.70;;;;;;5052719;28;20029;-72
2023/02/18 08:58:43;;;;;;;22.55;18.35;;;10.40;96.70;;;;;;5034918;28;20048;-72
2023/02/18 09:01:12;;;;;;;21.42;18.38;;;10.40;96.70;;;;;;5035898;28;20048;-72
2023/02/18 09:03:40;;;;;;;21.73;17.55;;;10.50;96.70;;;;;;5013922;28;20033;-73
2023/02/18 09:06:10;;;;;;;22.17;18.73;;;10.50;96.70;;;;;;5012768;28;20219;-73
2023/02/18 09:08:38;;;;;;;22.77;18.77;;;10.50;96.70;;;;;;5011593;28;20064;-72
2023/02/18 09:11:06;;;;;;;19.50;17.40;;;10.60;96.70;;;;;;5013991;28;20496;-72
2023/02/18 09:13:35;;;;;;;20.20;18.00;;;10.60;96.70;;;;;;5013331;28;20045;-72
2023/02/18 09:16:05;;;;;;;20.92;18.15;;;10.60;96.70;;;;;;5013917;28;20488;-74
2023/02/18 09:18:34;;;;;;;21.75;18.85;;;10.70;96.70;;;;;;5013767;28;20049;-73
2023/02/18 09:21:05;;;;;;;21.40;17.92;;;10.70;96.70;;;;;;5013811;28;20053;-73
2023/02/18 09:23:35;;;;;;;22.08;18.10;;;10.70;96.70;;;;;;5010944;28;20405;-71
2023/02/18 09:26:04;;;;;;;22.83;17.83;;;10.70;96.70;;;;;;5013589;28;20042;-71
2023/02/18 09:28:33;;;;;;;22.00;18.23;;;10.70;96.70;;;;;;5014006;28;20065;-70
2023/02/18 09:31:04;;;;;;;21.83;18.55;;;10.70;96.70;;;;;;5009784;28;20053;-70
2023/02/18 09:33:35;;;;;;;21.98;17.95;;;10.80;96.70;;;;;;5020159;28;20041;-71
2023/02/18 09:36:04;;;;;;;31.88;23.88;;;10.80;96.70;;;;;;5012947;28;20531;-72
2023/02/18 09:38:32;;;;;;;42.28;32.83;;;10.90;96.70;;;;;;5011559;28;20044;-71
2023/02/18 09:41:06;;;;;;;26.85;20.10;;;11.00;96.70;;;;;;5015194;28;20057;-71
2023/02/18 09:43:38;;;;;;;27.42;18.25;;;11.10;96.70;;;;;;5016643;28;20704;-70
2023/02/18 09:46:14;;;;;;;20.73;17.77;;;11.10;96.70;;;;;;5016785;28;20056;-70
2023/02/18 09:48:45;;;;;;;22.05;17.95;;;11.10;96.70;;;;;;5023894;28;20054;-71
2023/02/18 09:51:14;;;;;;;23.58;18.83;;;11.10;96.70;;;;;;5015897;28;20053;-70
2023/02/18 09:53:45;;;;;;;22.10;18.65;;;11.20;96.70;;;;;;5009217;28;20180;-70
2023/02/18 09:56:19;;;;;;;21.20;18.85;;;11.20;96.70;;;;;;5008621;28;20046;-70
2023/02/18 09:58:49;;;;;;;24.95;18.35;;;11.20;96.70;;;;;;5015041;28;20038;-70
2023/02/18 10:01:24;;;;;;;23.95;18.45;;;11.30;96.70;;;;;;5019871;28;20639;-70
2023/02/18 10:03:52;;;;;;;22.58;18.25;;;11.30;96.70;;;;;;5046399;28;20045;-71
2023/02/18 10:06:25;;;;;;;22.55;18.75;;;11.30;96.70;;;;;;5056813;28;20064;-71
2023/02/18 10:08:54;;;;;;;22.42;18.50;;;11.40;96.70;;;;;;5028990;28;20135;-71
2023/02/18 10:11:29;;;;;;;23.58;20.20;;;11.50;96.70;;;;;;5027712;28;20053;-71
2023/02/18 10:14:00;;;;;;;20.42;17.42;;;11.50;96.70;;;;;;5046703;28;20037;-73
2023/02/18 10:16:28;;;;;;;22.60;18.77;;;11.60;96.70;;;;;;5056445;28;20090;-73
2023/02/18 10:18:58;;;;;;;21.65;19.02;;;11.50;96.70;;;;;;5013788;28;20029;-73
2023/02/18 10:21:30;;;;;;;21.65;19.20;;;11.50;96.70;;;;;;5053234;28;20048;-73
2023/02/18 10:24:02;;;;;;;22.52;17.30;;;11.60;96.70;;;;;;5027473;28;20055;-73
2023/02/18 10:26:34;;;;;;;23.60;18.58;;;11.60;96.70;;;;;;5027420;28;20140;-72
2023/02/18 10:29:03;;;;;;;23.23;17.92;;;11.70;96.70;;;;;;5028122;28;20551;-74
2023/02/18 10:31:36;;;;;;;21.92;17.38;;;11.70;96.70;;;;;;5063422;28;20127;-73
2023/02/18 10:34:12;;;;;;;23.15;18.50;;;11.70;96.70;;;;;;5050923;28;20033;-74
2023/02/18 10:36:45;;;;;;;20.23;17.48;;;11.70;96.70;;;;;;5027044;28;20414;-73
2023/02/18 10:39:40;;;;;;;21.83;16.98;;;11.70;96.70;;;;;;5045113;28;20102;-74
2023/02/18 10:42:21;;;;;;;22.27;17.27;;;11.70;96.70;;;;;;5053424;28;20052;-75
2023/02/18 10:44:59;;;;;;;22.35;17.20;;;11.70;96.70;;;;;;5030710;28;20102;-75
2023/02/18 10:47:37;;;;;;;21.10;18.10;;;11.80;96.70;;;;;;5040077;28;20036;-76
2023/02/18 10:50:11;;;;;;;21.98;17.50;;;11.80;96.70;;;;;;5025818;28;20055;-73
2023/02/18 10:52:43;;;;;;;18.55;15.75;;;11.80;96.70;;;;;;5047100;28;20044;-74
2023/02/18 10:55:14;;;;;;;19.30;16.65;;;11.90;96.70;;;;;;5026349;28;20143;-74
2023/02/18 10:57:49;;;;;;;20.75;16.50;;;11.90;96.70;;;;;;5040665;28;20045;-75
2023/02/18 11:00:22;;;;;;;23.10;17.58;;;11.90;96.70;;;;;;5041193;28;20051;-73
2023/02/18 11:03:13;;;;;;;24.45;20.80;;;11.90;96.70;;;;;;5053412;28;20053;-73
2023/02/18 11:05:42;;;;;;;25.23;19.08;;;11.90;96.70;;;;;;5029592;28;20188;-73
2023/02/18 11:08:15;;;;;;;24.63;18.92;;;11.90;96.70;;;;;;5026280;28;20040;-74
2023/02/18 11:10:45;;;;;;;32.35;23.88;;;12.00;96.70;;;;;;5044235;28;20053;-73
2023/02/18 11:13:22;;;;;;;24.85;18.70;;;12.00;96.70;;;;;;5051964;28;20052;-74
2023/02/18 11:15:56;;;;;;;20.10;17.85;;;12.00;96.70;;;;;;5039430;28;20044;-74
2023/02/18 11:18:31;;;;;;;23.45;20.55;;;12.10;96.70;;;;;;5040158;28;20914;-73
2023/02/18 11:21:02;;;;;;;22.88;19.25;;;12.20;96.70;;;;;;5061788;28;20078;-73
2023/02/18 11:23:30;;;;;;;26.92;20.40;;;12.20;96.70;;;;;;5027348;28;20149;-73
2023/02/18 11:26:02;;;;;;;30.05;22.48;;;12.20;96.70;;;;;;5054264;28;20579;-73
2023/02/18 11:28:43;;;;;;;25.92;21.55;;;12.30;96.70;;;;;;5050797;28;20072;-74
2023/02/18 11:31:18;;;;;;;27.15;21.35;;;12.20;96.70;;;;;;5018505;28;20055;-74
2023/02/18 11:33:50;;;;;;;25.70;21.55;;;12.20;96.70;;;;;;5027945;28;20044;-73
2023/02/18 11:36:23;;;;;;;25.55;20.17;;;12.20;96.70;;;;;;5043793;28;20091;-72
2023/02/18 11:38:54;;;;;;;25.20;20.85;;;12.20;96.70;;;;;;5045854;28;20124;-73
2023/02/18 11:41:31;;;;;;;24.27;20.10;;;12.30;96.70;;;;;;5035551;28;20056;-73
2023/02/18 11:44:02;;;;;;;22.75;19.08;;;12.40;96.70;;;;;;5043408;28;20517;-73
2023/02/18 11:46:30;;;;;;;25.13;20.00;;;12.40;96.70;;;;;;5049491;28;20128;-73
2023/02/18 11:49:19;;;;;;;22.80;19.92;;;12.50;96.70;;;;;;5047438;28;20166;-72
2023/02/18 11:51:49;;;;;;;20.40;18.08;;;12.60;96.70;;;;;;5032892;28;20053;-73
2023/02/18 11:54:24;;;;;;;21.48;18.05;;;12.60;96.70;;;;;;5053597;28;20463;-72
2023/02/18 11:56:57;;;;;;;19.67;16.67;;;12.60;96.70;;;;;;5035065;28;20413;-73
2023/02/18 11:59:28;;;;;;;19.73;15.25;;;12.70;96.70;;;;;;5050430;28;20128;-72
2023/02/18 12:02:01;;;;;;;20.38;16.05;;;12.60;96.70;;;;;;5030799;28;20728;-72
2023/02/18 12:04:36;;;;;;;18.25;14.88;;;12.60;96.70;;;;;;5051310;28;20044;-72
2023/02/18 12:07:16;;;;;;;16.88;14.43;;;12.70;96.70;;;;;;5043709;28;20406;-69
2023/02/18 12:09:47;;;;;;;16.77;14.52;;;12.70;96.70;;;;;;5056698;28;20051;-70
2023/02/18 12:12:18;;;;;;;16.20;14.07;;;12.70;96.70;;;;;;5039944;28;20053;-70
2023/02/18 12:14:47;;;;;;;16.70;13.13;;;12.70;96.70;;;;;;5057821;28;20526;-71
2023/02/18 12:17:33;;;;;;;16.92;13.93;;;12.80;96.70;;;;;;5043480;28;20094;-71
2023/02/18 12:20:35;;;;;;;18.63;15.13;;;12.80;96.70;;;;;;5047279;28;20063;-70
2023/02/18 12:23:13;;;;;;;16.58;14.25;;;12.80;96.70;;;;;;5033397;28;20106;-70
2023/02/18 12:25:52;;;;;;;18.98;14.20;;;12.80;96.70;;;;;;5048527;28;20044;-71
2023/02/18 12:28:43;;;;;;;19.15;15.60;;;12.80;96.70;;;;;;5046026;28;21197;-70
2023/02/18 12:31:37;;;;;;;17.65;14.88;;;12.80;96.70;;;;;;5027188;28;20060;-70
2023/02/18 12:34:25;;;;;;;22.83;17.02;;;12.80;96.70;;;;;;5021138;28;20388;-70
2023/02/18 12:37:02;;;;;;;19.50;17.27;;;12.80;96.70;;;;;;5011026;28;20507;-70
2023/02/18 12:39:54;;;;;;;18.63;16.67;;;12.80;96.70;;;;;;5049148;28;20032;-71
2023/02/18 12:42:39;;;;;;;19.20;16.58;;;12.80;96.70;;;;;;5042937;28;20044;-70
2023/02/18 12:45:34;;;;;;;20.92;16.13;;;12.80;96.70;;;;;;5044074;28;20052;-71
2023/02/18 12:48:32;;;;;;;18.67;15.55;;;12.80;96.70;;;;;;5008882;28;20132;-70
2023/02/18 12:51:24;;;;;;;19.63;16.38;;;12.80;96.70;;;;;;5042677;28;20056;-71
2023/02/18 12:54:34;;;;;;;16.65;14.50;;;12.80;96.70;;;;;;5026008;28;20044;-71
2023/02/18 12:57:42;;;;;;;20.92;15.95;;;12.90;96.70;;;;;;4961476;28;20051;-70
2023/02/18 13:00:33;;;;;;;18.55;15.70;;;12.90;96.70;;;;;;4962360;28;20646;-70